sensor_id;sensor_type;location;lat;lon;timestamp;P1;durP1;ratioP1;P2;durP2;ratioP2
28774;SDS011;15926;51.348;6.596;2023-06-10T00:00:48;10.77;;;7.65;;
28774;SDS011;15926;51.348;6.596;2023-06-10T00:03:15;8.52;;;7.10;;
28774;SDS011;15926;51.348;6.596;2023-06-10T00:05:42;11.02;;;7.70;;
28774;SDS011;15926;51.348;6.596;2023-06-10T00:08:08;9.13;;;7.10;;
28774;SDS011;15926;51.348;6.596;2023-06-10T00:10:35;12.30;;;7.60;;
28774;SDS011;15926;51.348;6.596;2023-06-10T00:13:05;8.50;;;6.88;;
28774;SDS011;15926;51.348;6.596;2023-06-10T00:15:36;7.85;;;7.07;;
28774;SDS011;15926;51.348;6.596;2023-06-10T00:18:02;9.40;;;7.65;;
28774;SDS011;15926;51.348;6.596;2023-06-10T00:20:29;10.30;;;7.57;;
28774;SDS011;15926;51.348;6.596;2023-06-10T00:22:55;8.30;;;6.75;;
28774;SDS011;15926;51.348;6.596;2023-06-10T00:25:22;8.65;;;6.88;;
28774;SDS011;15926;51.348;6.596;2023-06-10T00:27:48;7.32;;;6.63;;
28774;SDS011;15926;51.348;6.596;2023-06-10T00:30:14;8.70;;;7.53;;
28774;SDS011;15926;51.348;6.596;2023-06-10T00:32:40;8.13;;;7.13;;
28774;SDS011;15926;51.348;6.596;2023-06-10T00:35:06;7.85;;;6.90;;
28774;SDS011;15926;51.348;6.596;2023-06-10T00:37:32;8.00;;;7.22;;
28774;SDS011;15926;51.348;6.596;2023-06-10T00:40:01;8.27;;;7.30;;
28774;SDS011;15926;51.348;6.596;2023-06-10T00:42:27;8.27;;;7.43;;
28774;SDS011;15926;51.348;6.596;2023-06-10T00:44:56;13.23;;;7.15;;
28774;SDS011;15926;51.348;6.596;2023-06-10T00:47:22;8.63;;;7.82;;
28774;SDS011;15926;51.348;6.596;2023-06-10T00:49:49;8.68;;;7.25;;
28774;SDS011;15926;51.348;6.596;2023-06-10T00:52:16;7.65;;;7.05;;
28774;SDS011;15926;51.348;6.596;2023-06-10T00:54:42;8.88;;;8.07;;
28774;SDS011;15926;51.348;6.596;2023-06-10T00:57:08;7.88;;;7.07;;
28774;SDS011;15926;51.348;6.596;2023-06-10T00:59:34;8.80;;;7.32;;
28774;SDS011;15926;51.348;6.596;2023-06-10T01:02:00;11.48;;;8.02;;
28774;SDS011;15926;51.348;6.596;2023-06-10T01:04:27;8.00;;;7.15;;
28774;SDS011;15926;51.348;6.596;2023-06-10T01:09:45;9.50;;;7.43;;
28774;SDS011;15926;51.348;6.596;2023-06-10T01:14:47;8.27;;;7.45;;
28774;SDS011;15926;51.348;6.596;2023-06-10T01:17:13;8.02;;;7.25;;
28774;SDS011;15926;51.348;6.596;2023-06-10T01:19:41;10.90;;;7.40;;
28774;SDS011;15926;51.348;6.596;2023-06-10T01:22:08;7.97;;;7.18;;
28774;SDS011;15926;51.348;6.596;2023-06-10T01:24:35;9.35;;;7.15;;
28774;SDS011;15926;51.348;6.596;2023-06-10T01:27:01;8.20;;;6.70;;
28774;SDS011;15926;51.348;6.596;2023-06-10T01:29:39;9.95;;;7.43;;
28774;SDS011;15926;51.348;6.596;2023-06-10T01:32:18;10.32;;;7.05;;
28774;SDS011;15926;51.348;6.596;2023-06-10T01:34:46;7.57;;;6.88;;
28774;SDS011;15926;51.348;6.596;2023-06-10T01:37:14;8.10;;;7.30;;
28774;SDS011;15926;51.348;6.596;2023-06-10T01:39:41;9.00;;;8.10;;
28774;SDS011;15926;51.348;6.596;2023-06-10T01:42:08;7.82;;;7.13;;
28774;SDS011;15926;51.348;6.596;2023-06-10T01:44:35;11.77;;;7.63;;
28774;SDS011;15926;51.348;6.596;2023-06-10T01:47:01;8.93;;;7.32;;
28774;SDS011;15926;51.348;6.596;2023-06-10T01:49:27;8.82;;;7.93;;
28774;SDS011;15926;51.348;6.596;2023-06-10T01:51:53;7.93;;;7.22;;
28774;SDS011;15926;51.348;6.596;2023-06-10T01:54:19;8.18;;;7.35;;
28774;SDS011;15926;51.348;6.596;2023-06-10T01:56:45;7.63;;;6.97;;
28774;SDS011;15926;51.348;6.596;2023-06-10T01:59:11;8.07;;;7.38;;
28774;SDS011;15926;51.348;6.596;2023-06-10T02:01:37;9.05;;;7.80;;
28774;SDS011;15926;51.348;6.596;2023-06-10T02:04:03;9.10;;;7.47;;
28774;SDS011;15926;51.348;6.596;2023-06-10T02:06:29;8.75;;;7.30;;
28774;SDS011;15926;51.348;6.596;2023-06-10T02:08:55;8.27;;;7.43;;
28774;SDS011;15926;51.348;6.596;2023-06-10T02:11:21;8.63;;;7.75;;
28774;SDS011;15926;51.348;6.596;2023-06-10T02:13:47;8.80;;;7.35;;
28774;SDS011;15926;51.348;6.596;2023-06-10T02:16:13;8.55;;;7.57;;
28774;SDS011;15926;51.348;6.596;2023-06-10T02:18:41;8.63;;;7.63;;
28774;SDS011;15926;51.348;6.596;2023-06-10T02:21:11;9.27;;;7.32;;
28774;SDS011;15926;51.348;6.596;2023-06-10T02:23:37;7.70;;;6.85;;
28774;SDS011;15926;51.348;6.596;2023-06-10T02:26:03;8.85;;;7.95;;
28774;SDS011;15926;51.348;6.596;2023-06-10T02:28:29;8.90;;;7.90;;
28774;SDS011;15926;51.348;6.596;2023-06-10T02:30:55;9.07;;;8.20;;
28774;SDS011;15926;51.348;6.596;2023-06-10T02:33:22;12.43;;;7.93;;
28774;SDS011;15926;51.348;6.596;2023-06-10T02:35:48;8.65;;;7.93;;
28774;SDS011;15926;51.348;6.596;2023-06-10T02:38:14;8.48;;;7.65;;
28774;SDS011;15926;51.348;6.596;2023-06-10T02:40:40;9.27;;;8.07;;
28774;SDS011;15926;51.348;6.596;2023-06-10T02:43:06;8.57;;;7.63;;
28774;SDS011;15926;51.348;6.596;2023-06-10T02:45:32;11.35;;;8.52;;
28774;SDS011;15926;51.348;6.596;2023-06-10T02:47:58;8.38;;;7.43;;
28774;SDS011;15926;51.348;6.596;2023-06-10T02:50:24;8.57;;;7.63;;
28774;SDS011;15926;51.348;6.596;2023-06-10T02:52:50;9.40;;;8.32;;
28774;SDS011;15926;51.348;6.596;2023-06-10T02:55:16;9.23;;;8.25;;
28774;SDS011;15926;51.348;6.596;2023-06-10T02:57:42;8.43;;;7.53;;
28774;SDS011;15926;51.348;6.596;2023-06-10T03:00:08;10.45;;;8.10;;
28774;SDS011;15926;51.348;6.596;2023-06-10T03:02:35;9.02;;;8.13;;
28774;SDS011;15926;51.348;6.596;2023-06-10T03:05:03;9.43;;;7.68;;
28774;SDS011;15926;51.348;6.596;2023-06-10T03:07:30;9.30;;;8.40;;
28774;SDS011;15926;51.348;6.596;2023-06-10T03:09:56;9.52;;;8.55;;
28774;SDS011;15926;51.348;6.596;2023-06-10T03:12:22;9.02;;;8.32;;
28774;SDS011;15926;51.348;6.596;2023-06-10T03:14:48;10.18;;;8.50;;
28774;SDS011;15926;51.348;6.596;2023-06-10T03:17:14;10.13;;;8.55;;
28774;SDS011;15926;51.348;6.596;2023-06-10T03:19:40;10.13;;;8.85;;
28774;SDS011;15926;51.348;6.596;2023-06-10T03:22:10;9.40;;;8.60;;
28774;SDS011;15926;51.348;6.596;2023-06-10T03:24:36;10.15;;;9.25;;
28774;SDS011;15926;51.348;6.596;2023-06-10T03:27:06;9.23;;;8.33;;
28774;SDS011;15926;51.348;6.596;2023-06-10T03:29:32;8.75;;;8.00;;
28774;SDS011;15926;51.348;6.596;2023-06-10T03:31:58;9.35;;;8.45;;
28774;SDS011;15926;51.348;6.596;2023-06-10T03:34:24;9.93;;;8.95;;
28774;SDS011;15926;51.348;6.596;2023-06-10T03:36:50;9.95;;;8.98;;
28774;SDS011;15926;51.348;6.596;2023-06-10T03:39:16;11.50;;;8.73;;
28774;SDS011;15926;51.348;6.596;2023-06-10T03:41:42;10.07;;;9.18;;
28774;SDS011;15926;51.348;6.596;2023-06-10T03:44:08;12.27;;;9.38;;
28774;SDS011;15926;51.348;6.596;2023-06-10T03:46:34;10.57;;;8.35;;
28774;SDS011;15926;51.348;6.596;2023-06-10T03:49:00;9.57;;;8.73;;
28774;SDS011;15926;51.348;6.596;2023-06-10T03:51:26;10.35;;;9.20;;
28774;SDS011;15926;51.348;6.596;2023-06-10T03:53:52;11.45;;;8.70;;
28774;SDS011;15926;51.348;6.596;2023-06-10T03:56:18;9.13;;;8.32;;
28774;SDS011;15926;51.348;6.596;2023-06-10T03:58:44;10.32;;;9.32;;
28774;SDS011;15926;51.348;6.596;2023-06-10T04:01:10;10.00;;;9.00;;
28774;SDS011;15926;51.348;6.596;2023-06-10T04:03:38;12.20;;;9.50;;
28774;SDS011;15926;51.348;6.596;2023-06-10T04:06:06;10.60;;;9.07;;
28774;SDS011;15926;51.348;6.596;2023-06-10T04:08:32;9.82;;;8.98;;
28774;SDS011;15926;51.348;6.596;2023-06-10T04:10:58;10.00;;;9.00;;
28774;SDS011;15926;51.348;6.596;2023-06-10T04:13:24;9.73;;;8.82;;
28774;SDS011;15926;51.348;6.596;2023-06-10T04:15:51;11.82;;;9.77;;
28774;SDS011;15926;51.348;6.596;2023-06-10T04:18:17;11.32;;;10.10;;
28774;SDS011;15926;51.348;6.596;2023-06-10T04:20:43;10.90;;;9.80;;
28774;SDS011;15926;51.348;6.596;2023-06-10T04:23:09;10.25;;;9.35;;
28774;SDS011;15926;51.348;6.596;2023-06-10T04:25:35;10.35;;;9.45;;
28774;SDS011;15926;51.348;6.596;2023-06-10T04:28:03;10.25;;;9.27;;
28774;SDS011;15926;51.348;6.596;2023-06-10T04:30:29;10.30;;;9.20;;
28774;SDS011;15926;51.348;6.596;2023-06-10T04:32:56;10.38;;;9.38;;
28774;SDS011;15926;51.348;6.596;2023-06-10T04:35:22;12.27;;;9.82;;
28774;SDS011;15926;51.348;6.596;2023-06-10T04:37:48;10.35;;;9.30;;
28774;SDS011;15926;51.348;6.596;2023-06-10T04:40:14;10.77;;;9.63;;
28774;SDS011;15926;51.348;6.596;2023-06-10T04:42:40;11.68;;;9.73;;
28774;SDS011;15926;51.348;6.596;2023-06-10T04:45:07;11.75;;;10.00;;
28774;SDS011;15926;51.348;6.596;2023-06-10T04:47:33;11.93;;;10.63;;
28774;SDS011;15926;51.348;6.596;2023-06-10T04:49:59;14.82;;;10.40;;
28774;SDS011;15926;51.348;6.596;2023-06-10T04:52:25;11.70;;;10.55;;
28774;SDS011;15926;51.348;6.596;2023-06-10T04:54:52;12.25;;;10.95;;
28774;SDS011;15926;51.348;6.596;2023-06-10T04:57:18;11.02;;;10.13;;
28774;SDS011;15926;51.348;6.596;2023-06-10T04:59:45;11.32;;;9.82;;
28774;SDS011;15926;51.348;6.596;2023-06-10T05:02:11;11.40;;;10.40;;
28774;SDS011;15926;51.348;6.596;2023-06-10T05:04:37;12.68;;;10.63;;
28774;SDS011;15926;51.348;6.596;2023-06-10T05:07:03;12.18;;;10.82;;
28774;SDS011;15926;51.348;6.596;2023-06-10T05:09:29;11.70;;;10.57;;
28774;SDS011;15926;51.348;6.596;2023-06-10T05:11:55;11.13;;;10.13;;
28774;SDS011;15926;51.348;6.596;2023-06-10T05:14:21;11.38;;;10.27;;
28774;SDS011;15926;51.348;6.596;2023-06-10T05:16:48;11.50;;;10.10;;
28774;SDS011;15926;51.348;6.596;2023-06-10T05:19:14;11.77;;;10.55;;
28774;SDS011;15926;51.348;6.596;2023-06-10T05:21:41;12.15;;;10.25;;
28774;SDS011;15926;51.348;6.596;2023-06-10T05:24:07;14.63;;;10.50;;
28774;SDS011;15926;51.348;6.596;2023-06-10T05:26:33;11.15;;;10.05;;
28774;SDS011;15926;51.348;6.596;2023-06-10T05:29:02;10.80;;;9.48;;
28774;SDS011;15926;51.348;6.596;2023-06-10T05:31:29;11.60;;;10.40;;
28774;SDS011;15926;51.348;6.596;2023-06-10T05:33:54;11.82;;;9.70;;
28774;SDS011;15926;51.348;6.596;2023-06-10T05:36:20;12.10;;;9.35;;
28774;SDS011;15926;51.348;6.596;2023-06-10T05:38:47;11.40;;;9.75;;
28774;SDS011;15926;51.348;6.596;2023-06-10T05:41:13;11.80;;;9.70;;
28774;SDS011;15926;51.348;6.596;2023-06-10T05:43:39;10.65;;;8.75;;
28774;SDS011;15926;51.348;6.596;2023-06-10T05:46:05;10.90;;;9.13;;
28774;SDS011;15926;51.348;6.596;2023-06-10T05:48:31;10.68;;;9.35;;
28774;SDS011;15926;51.348;6.596;2023-06-10T05:50:57;11.68;;;9.88;;
28774;SDS011;15926;51.348;6.596;2023-06-10T05:53:23;10.40;;;9.07;;
28774;SDS011;15926;51.348;6.596;2023-06-10T05:55:49;10.80;;;9.63;;
28774;SDS011;15926;51.348;6.596;2023-06-10T05:58:16;9.73;;;8.82;;
28774;SDS011;15926;51.348;6.596;2023-06-10T06:00:42;10.07;;;9.00;;
28774;SDS011;15926;51.348;6.596;2023-06-10T06:03:08;9.85;;;8.85;;
28774;SDS011;15926;51.348;6.596;2023-06-10T06:05:35;9.55;;;8.43;;
28774;SDS011;15926;51.348;6.596;2023-06-10T06:08:03;10.00;;;8.35;;
28774;SDS011;15926;51.348;6.596;2023-06-10T06:10:29;9.88;;;8.90;;
28774;SDS011;15926;51.348;6.596;2023-06-10T06:12:55;9.57;;;8.32;;
28774;SDS011;15926;51.348;6.596;2023-06-10T06:15:21;12.07;;;9.23;;
28774;SDS011;15926;51.348;6.596;2023-06-10T06:17:47;12.30;;;8.93;;
28774;SDS011;15926;51.348;6.596;2023-06-10T06:20:13;9.20;;;8.27;;
28774;SDS011;15926;51.348;6.596;2023-06-10T06:22:39;12.32;;;9.02;;
28774;SDS011;15926;51.348;6.596;2023-06-10T06:25:05;11.65;;;8.52;;
28774;SDS011;15926;51.348;6.596;2023-06-10T06:27:31;9.93;;;8.45;;
28774;SDS011;15926;51.348;6.596;2023-06-10T06:29:57;12.75;;;8.40;;
28774;SDS011;15926;51.348;6.596;2023-06-10T06:32:24;10.85;;;8.07;;
28774;SDS011;15926;51.348;6.596;2023-06-10T06:34:52;8.63;;;7.25;;
28774;SDS011;15926;51.348;6.596;2023-06-10T06:37:22;8.35;;;7.53;;
28774;SDS011;15926;51.348;6.596;2023-06-10T06:39:52;9.90;;;8.10;;
28774;SDS011;15926;51.348;6.596;2023-06-10T06:42:18;10.18;;;7.57;;
28774;SDS011;15926;51.348;6.596;2023-06-10T06:44:44;12.13;;;7.35;;
28774;SDS011;15926;51.348;6.596;2023-06-10T06:47:10;13.13;;;8.70;;
28774;SDS011;15926;51.348;6.596;2023-06-10T06:49:37;14.35;;;8.88;;
28774;SDS011;15926;51.348;6.596;2023-06-10T06:52:03;11.23;;;8.05;;
28774;SDS011;15926;51.348;6.596;2023-06-10T06:54:29;12.50;;;8.43;;
28774;SDS011;15926;51.348;6.596;2023-06-10T06:56:55;13.80;;;8.20;;
28774;SDS011;15926;51.348;6.596;2023-06-10T06:59:21;13.05;;;8.95;;
28774;SDS011;15926;51.348;6.596;2023-06-10T07:01:47;14.02;;;8.32;;
28774;SDS011;15926;51.348;6.596;2023-06-10T07:04:14;12.98;;;8.10;;
28774;SDS011;15926;51.348;6.596;2023-06-10T07:06:41;13.23;;;8.55;;
28774;SDS011;15926;51.348;6.596;2023-06-10T07:09:07;12.85;;;8.70;;
28774;SDS011;15926;51.348;6.596;2023-06-10T07:14:02;9.77;;;6.75;;
28774;SDS011;15926;51.348;6.596;2023-06-10T07:16:28;12.23;;;7.35;;
28774;SDS011;15926;51.348;6.596;2023-06-10T07:18:54;10.25;;;6.97;;
28774;SDS011;15926;51.348;6.596;2023-06-10T07:21:20;16.77;;;7.32;;
28774;SDS011;15926;51.348;6.596;2023-06-10T07:23:48;10.35;;;7.30;;
28774;SDS011;15926;51.348;6.596;2023-06-10T07:28:43;8.05;;;6.22;;
28774;SDS011;15926;51.348;6.596;2023-06-10T07:31:09;8.02;;;6.35;;
28774;SDS011;15926;51.348;6.596;2023-06-10T07:33:36;9.43;;;6.88;;
28774;SDS011;15926;51.348;6.596;2023-06-10T07:36:04;9.45;;;6.68;;
28774;SDS011;15926;51.348;6.596;2023-06-10T07:38:30;7.35;;;6.65;;
28774;SDS011;15926;51.348;6.596;2023-06-10T07:40:56;7.70;;;6.10;;
28774;SDS011;15926;51.348;6.596;2023-06-10T07:43:23;7.25;;;5.90;;
28774;SDS011;15926;51.348;6.596;2023-06-10T07:45:49;6.95;;;6.25;;
28774;SDS011;15926;51.348;6.596;2023-06-10T07:48:15;7.43;;;6.38;;
28774;SDS011;15926;51.348;6.596;2023-06-10T07:50:42;7.60;;;5.97;;
28774;SDS011;15926;51.348;6.596;2023-06-10T07:53:07;7.63;;;5.82;;
28774;SDS011;15926;51.348;6.596;2023-06-10T07:55:34;9.10;;;5.47;;
28774;SDS011;15926;51.348;6.596;2023-06-10T07:57:59;7.88;;;5.85;;
28774;SDS011;15926;51.348;6.596;2023-06-10T08:00:25;9.38;;;6.50;;
28774;SDS011;15926;51.348;6.596;2023-06-10T08:02:51;8.65;;;6.32;;
28774;SDS011;15926;51.348;6.596;2023-06-10T08:05:17;6.55;;;5.93;;
28774;SDS011;15926;51.348;6.596;2023-06-10T08:07:44;6.13;;;5.53;;
28774;SDS011;15926;51.348;6.596;2023-06-10T08:10:10;7.32;;;5.95;;
28774;SDS011;15926;51.348;6.596;2023-06-10T08:12:36;5.82;;;5.32;;
28774;SDS011;15926;51.348;6.596;2023-06-10T08:15:02;5.35;;;4.85;;
28774;SDS011;15926;51.348;6.596;2023-06-10T08:17:29;8.18;;;5.75;;
28774;SDS011;15926;51.348;6.596;2023-06-10T08:19:55;7.97;;;5.80;;
28774;SDS011;15926;51.348;6.596;2023-06-10T08:22:21;7.85;;;5.55;;
28774;SDS011;15926;51.348;6.596;2023-06-10T08:24:47;8.38;;;5.53;;
28774;SDS011;15926;51.348;6.596;2023-06-10T08:27:13;6.00;;;5.50;;
28774;SDS011;15926;51.348;6.596;2023-06-10T08:29:39;6.32;;;5.13;;
28774;SDS011;15926;51.348;6.596;2023-06-10T08:32:06;5.75;;;5.25;;
28774;SDS011;15926;51.348;6.596;2023-06-10T08:34:35;9.55;;;6.28;;
28774;SDS011;15926;51.348;6.596;2023-06-10T08:37:02;10.07;;;6.28;;
28774;SDS011;15926;51.348;6.596;2023-06-10T08:39:28;8.55;;;5.55;;
28774;SDS011;15926;51.348;6.596;2023-06-10T08:42:04;9.45;;;5.72;;
28774;SDS011;15926;51.348;6.596;2023-06-10T08:44:32;7.28;;;5.80;;
28774;SDS011;15926;51.348;6.596;2023-06-10T08:47:03;10.27;;;5.20;;
28774;SDS011;15926;51.348;6.596;2023-06-10T08:49:33;9.52;;;5.70;;
28774;SDS011;15926;51.348;6.596;2023-06-10T08:52:01;7.87;;;5.50;;
28774;SDS011;15926;51.348;6.596;2023-06-10T08:54:31;6.55;;;4.78;;
28774;SDS011;15926;51.348;6.596;2023-06-10T08:56:59;6.28;;;5.78;;
28774;SDS011;15926;51.348;6.596;2023-06-10T08:59:26;9.88;;;5.97;;
28774;SDS011;15926;51.348;6.596;2023-06-10T09:01:52;7.88;;;5.65;;
28774;SDS011;15926;51.348;6.596;2023-06-10T09:04:19;5.50;;;4.90;;
28774;SDS011;15926;51.348;6.596;2023-06-10T09:06:45;11.15;;;5.72;;
28774;SDS011;15926;51.348;6.596;2023-06-10T09:09:12;7.25;;;5.53;;
28774;SDS011;15926;51.348;6.596;2023-06-10T09:11:39;7.68;;;5.13;;
28774;SDS011;15926;51.348;6.596;2023-06-10T09:14:06;6.07;;;5.05;;
28774;SDS011;15926;51.348;6.596;2023-06-10T09:16:32;9.50;;;6.18;;
28774;SDS011;15926;51.348;6.596;2023-06-10T09:18:58;8.57;;;6.22;;
28774;SDS011;15926;51.348;6.596;2023-06-10T09:21:24;6.13;;;5.45;;
28774;SDS011;15926;51.348;6.596;2023-06-10T09:23:51;9.85;;;5.68;;
28774;SDS011;15926;51.348;6.596;2023-06-10T09:26:17;7.13;;;4.97;;
28774;SDS011;15926;51.348;6.596;2023-06-10T09:28:50;7.82;;;5.32;;
28774;SDS011;15926;51.348;6.596;2023-06-10T09:31:16;7.70;;;4.90;;
28774;SDS011;15926;51.348;6.596;2023-06-10T09:33:46;5.53;;;4.65;;
28774;SDS011;15926;51.348;6.596;2023-06-10T09:36:21;9.32;;;5.45;;
28774;SDS011;15926;51.348;6.596;2023-06-10T09:38:49;6.70;;;5.55;;
28774;SDS011;15926;51.348;6.596;2023-06-10T09:41:18;5.28;;;4.75;;
28774;SDS011;15926;51.348;6.596;2023-06-10T09:43:45;5.88;;;5.07;;
28774;SDS011;15926;51.348;6.596;2023-06-10T09:46:14;5.55;;;5.00;;
28774;SDS011;15926;51.348;6.596;2023-06-10T09:48:44;5.10;;;4.60;;
28774;SDS011;15926;51.348;6.596;2023-06-10T09:51:12;6.78;;;5.13;;
28774;SDS011;15926;51.348;6.596;2023-06-10T09:53:39;5.43;;;4.93;;
28774;SDS011;15926;51.348;6.596;2023-06-10T09:56:05;5.30;;;4.82;;
28774;SDS011;15926;51.348;6.596;2023-06-10T09:58:34;6.38;;;5.30;;
28774;SDS011;15926;51.348;6.596;2023-06-10T10:01:04;5.40;;;4.90;;
28774;SDS011;15926;51.348;6.596;2023-06-10T10:03:30;10.18;;;5.20;;
28774;SDS011;15926;51.348;6.596;2023-06-10T10:06:00;8.32;;;4.90;;
28774;SDS011;15926;51.348;6.596;2023-06-10T10:08:26;8.27;;;4.80;;
28774;SDS011;15926;51.348;6.596;2023-06-10T10:10:52;8.68;;;4.90;;
28774;SDS011;15926;51.348;6.596;2023-06-10T10:13:18;6.97;;;4.82;;
28774;SDS011;15926;51.348;6.596;2023-06-10T10:15:44;5.82;;;4.65;;
28774;SDS011;15926;51.348;6.596;2023-06-10T10:18:10;6.30;;;5.00;;
28774;SDS011;15926;51.348;6.596;2023-06-10T10:20:42;7.82;;;4.95;;
28774;SDS011;15926;51.348;6.596;2023-06-10T10:23:11;5.53;;;5.03;;
28774;SDS011;15926;51.348;6.596;2023-06-10T10:25:40;5.28;;;4.32;;
28774;SDS011;15926;51.348;6.596;2023-06-10T10:28:08;8.13;;;4.57;;
28774;SDS011;15926;51.348;6.596;2023-06-10T10:30:37;6.78;;;4.53;;
28774;SDS011;15926;51.348;6.596;2023-06-10T10:33:06;8.75;;;4.93;;
28774;SDS011;15926;51.348;6.596;2023-06-10T10:35:34;6.55;;;4.90;;
28774;SDS011;15926;51.348;6.596;2023-06-10T10:38:01;6.45;;;4.75;;
28774;SDS011;15926;51.348;6.596;2023-06-10T10:40:28;6.40;;;5.05;;
28774;SDS011;15926;51.348;6.596;2023-06-10T10:42:55;8.85;;;4.70;;
28774;SDS011;15926;51.348;6.596;2023-06-10T10:45:21;4.75;;;4.35;;
28774;SDS011;15926;51.348;6.596;2023-06-10T10:47:52;5.55;;;5.03;;
28774;SDS011;15926;51.348;6.596;2023-06-10T10:50:19;5.22;;;4.82;;
28774;SDS011;15926;51.348;6.596;2023-06-10T10:52:48;7.28;;;4.78;;
28774;SDS011;15926;51.348;6.596;2023-06-10T10:55:17;7.13;;;5.00;;
28774;SDS011;15926;51.348;6.596;2023-06-10T10:57:43;5.47;;;4.20;;
28774;SDS011;15926;51.348;6.596;2023-06-10T11:00:10;6.57;;;4.97;;
28774;SDS011;15926;51.348;6.596;2023-06-10T11:02:41;4.97;;;4.57;;
28774;SDS011;15926;51.348;6.596;2023-06-10T11:05:14;11.65;;;5.03;;
28774;SDS011;15926;51.348;6.596;2023-06-10T11:07:40;5.80;;;4.70;;
28774;SDS011;15926;51.348;6.596;2023-06-10T11:10:10;7.70;;;4.78;;
28774;SDS011;15926;51.348;6.596;2023-06-10T11:15:08;5.20;;;4.72;;
28774;SDS011;15926;51.348;6.596;2023-06-10T11:17:34;5.20;;;4.80;;
28774;SDS011;15926;51.348;6.596;2023-06-10T11:20:00;5.53;;;4.82;;
28774;SDS011;15926;51.348;6.596;2023-06-10T11:22:27;6.25;;;5.20;;
28774;SDS011;15926;51.348;6.596;2023-06-10T11:24:53;6.88;;;4.63;;
28774;SDS011;15926;51.348;6.596;2023-06-10T11:27:20;5.18;;;4.25;;
28774;SDS011;15926;51.348;6.596;2023-06-10T11:32:31;5.55;;;4.60;;
28774;SDS011;15926;51.348;6.596;2023-06-10T11:34:57;5.15;;;4.60;;
28774;SDS011;15926;51.348;6.596;2023-06-10T11:37:23;6.03;;;4.53;;
28774;SDS011;15926;51.348;6.596;2023-06-10T11:39:53;5.28;;;4.78;;
28774;SDS011;15926;51.348;6.596;2023-06-10T11:42:19;5.10;;;4.80;;
28774;SDS011;15926;51.348;6.596;2023-06-10T11:44:52;4.68;;;4.20;;
28774;SDS011;15926;51.348;6.596;2023-06-10T11:47:19;5.03;;;4.72;;
28774;SDS011;15926;51.348;6.596;2023-06-10T11:49:49;4.85;;;4.45;;
28774;SDS011;15926;51.348;6.596;2023-06-10T11:52:28;7.38;;;5.00;;
28774;SDS011;15926;51.348;6.596;2023-06-10T11:54:54;5.05;;;4.60;;
28774;SDS011;15926;51.348;6.596;2023-06-10T11:57:20;5.20;;;4.60;;
28774;SDS011;15926;51.348;6.596;2023-06-10T11:59:46;6.00;;;4.82;;
28774;SDS011;15926;51.348;6.596;2023-06-10T12:02:16;5.82;;;5.20;;
28774;SDS011;15926;51.348;6.596;2023-06-10T12:04:42;5.35;;;4.97;;
28774;SDS011;15926;51.348;6.596;2023-06-10T12:07:08;4.95;;;4.55;;
28774;SDS011;15926;51.348;6.596;2023-06-10T12:09:34;4.65;;;4.35;;
28774;SDS011;15926;51.348;6.596;2023-06-10T12:12:01;6.68;;;4.95;;
28774;SDS011;15926;51.348;6.596;2023-06-10T12:17:12;5.18;;;4.38;;
28774;SDS011;15926;51.348;6.596;2023-06-10T12:19:41;8.32;;;4.97;;
28774;SDS011;15926;51.348;6.596;2023-06-10T12:22:07;6.03;;;4.63;;
28774;SDS011;15926;51.348;6.596;2023-06-10T12:24:33;5.18;;;4.57;;
28774;SDS011;15926;51.348;6.596;2023-06-10T12:27:03;7.32;;;5.15;;
28774;SDS011;15926;51.348;6.596;2023-06-10T12:29:29;5.75;;;4.68;;
28774;SDS011;15926;51.348;6.596;2023-06-10T12:32:02;5.10;;;4.25;;
28774;SDS011;15926;51.348;6.596;2023-06-10T12:34:37;5.35;;;4.88;;
28774;SDS011;15926;51.348;6.596;2023-06-10T12:37:04;6.70;;;4.78;;
28774;SDS011;15926;51.348;6.596;2023-06-10T12:39:31;9.27;;;5.70;;
28774;SDS011;15926;51.348;6.596;2023-06-10T12:41:57;4.63;;;4.28;;
28774;SDS011;15926;51.348;6.596;2023-06-10T12:44:30;6.57;;;4.50;;
28774;SDS011;15926;51.348;6.596;2023-06-10T12:46:56;4.97;;;4.47;;
28774;SDS011;15926;51.348;6.596;2023-06-10T12:49:23;5.22;;;4.82;;
28774;SDS011;15926;51.348;6.596;2023-06-10T12:51:50;6.03;;;5.32;;
28774;SDS011;15926;51.348;6.596;2023-06-10T12:54:16;7.25;;;4.75;;
28774;SDS011;15926;51.348;6.596;2023-06-10T12:56:42;5.45;;;4.97;;
28774;SDS011;15926;51.348;6.596;2023-06-10T12:59:07;8.93;;;5.20;;
28774;SDS011;15926;51.348;6.596;2023-06-10T13:01:33;6.82;;;4.72;;
28774;SDS011;15926;51.348;6.596;2023-06-10T13:04:00;6.22;;;5.15;;
28774;SDS011;15926;51.348;6.596;2023-06-10T13:06:25;5.90;;;5.28;;
28774;SDS011;15926;51.348;6.596;2023-06-10T13:08:51;5.70;;;5.30;;
28774;SDS011;15926;51.348;6.596;2023-06-10T13:11:18;5.47;;;4.95;;
28774;SDS011;15926;51.348;6.596;2023-06-10T13:13:43;11.45;;;5.43;;
28774;SDS011;15926;51.348;6.596;2023-06-10T13:16:11;5.20;;;4.60;;
28774;SDS011;15926;51.348;6.596;2023-06-10T13:18:37;4.78;;;4.47;;
28774;SDS011;15926;51.348;6.596;2023-06-10T13:21:03;5.07;;;4.70;;
28774;SDS011;15926;51.348;6.596;2023-06-10T13:23:29;4.80;;;4.47;;
28774;SDS011;15926;51.348;6.596;2023-06-10T13:25:56;5.85;;;5.20;;
28774;SDS011;15926;51.348;6.596;2023-06-10T13:28:22;5.32;;;4.82;;
28774;SDS011;15926;51.348;6.596;2023-06-10T13:30:48;6.05;;;5.60;;
28774;SDS011;15926;51.348;6.596;2023-06-10T13:33:15;5.43;;;5.00;;
28774;SDS011;15926;51.348;6.596;2023-06-10T13:35:41;7.10;;;5.05;;
28774;SDS011;15926;51.348;6.596;2023-06-10T13:38:07;6.40;;;4.93;;
28774;SDS011;15926;51.348;6.596;2023-06-10T13:40:33;5.20;;;4.70;;
28774;SDS011;15926;51.348;6.596;2023-06-10T13:42:59;5.28;;;4.95;;
28774;SDS011;15926;51.348;6.596;2023-06-10T13:45:25;7.70;;;5.78;;
28774;SDS011;15926;51.348;6.596;2023-06-10T13:47:53;5.68;;;5.07;;
28774;SDS011;15926;51.348;6.596;2023-06-10T13:50:19;6.20;;;4.40;;
28774;SDS011;15926;51.348;6.596;2023-06-10T13:52:45;5.63;;;5.15;;
28774;SDS011;15926;51.348;6.596;2023-06-10T13:55:11;6.13;;;4.90;;
28774;SDS011;15926;51.348;6.596;2023-06-10T13:57:37;5.72;;;5.22;;
28774;SDS011;15926;51.348;6.596;2023-06-10T14:00:03;5.68;;;5.22;;
28774;SDS011;15926;51.348;6.596;2023-06-10T14:02:29;7.28;;;5.53;;
28774;SDS011;15926;51.348;6.596;2023-06-10T14:04:55;5.55;;;5.15;;
28774;SDS011;15926;51.348;6.596;2023-06-10T14:07:21;5.63;;;4.80;;
28774;SDS011;15926;51.348;6.596;2023-06-10T14:09:47;6.25;;;5.75;;
28774;SDS011;15926;51.348;6.596;2023-06-10T14:12:13;6.40;;;5.00;;
28774;SDS011;15926;51.348;6.596;2023-06-10T14:14:39;5.43;;;5.03;;
28774;SDS011;15926;51.348;6.596;2023-06-10T14:17:05;5.43;;;5.13;;
28774;SDS011;15926;51.348;6.596;2023-06-10T14:19:31;5.15;;;4.75;;
28774;SDS011;15926;51.348;6.596;2023-06-10T14:21:57;4.95;;;4.55;;
28774;SDS011;15926;51.348;6.596;2023-06-10T14:24:23;5.30;;;4.95;;
28774;SDS011;15926;51.348;6.596;2023-06-10T14:26:49;5.88;;;5.20;;
28774;SDS011;15926;51.348;6.596;2023-06-10T14:29:15;5.35;;;4.97;;
28774;SDS011;15926;51.348;6.596;2023-06-10T14:31:43;5.20;;;4.70;;
28774;SDS011;15926;51.348;6.596;2023-06-10T14:34:09;6.45;;;5.90;;
28774;SDS011;15926;51.348;6.596;2023-06-10T14:36:35;6.45;;;5.78;;
28774;SDS011;15926;51.348;6.596;2023-06-10T14:39:02;7.13;;;5.20;;
28774;SDS011;15926;51.348;6.596;2023-06-10T14:41:28;5.32;;;4.80;;
28774;SDS011;15926;51.348;6.596;2023-06-10T14:43:54;4.88;;;4.43;;
28774;SDS011;15926;51.348;6.596;2023-06-10T14:46:20;7.18;;;6.57;;
28774;SDS011;15926;51.348;6.596;2023-06-10T14:48:46;7.55;;;6.90;;
28774;SDS011;15926;51.348;6.596;2023-06-10T14:51:12;5.90;;;5.30;;
28774;SDS011;15926;51.348;6.596;2023-06-10T14:53:38;6.28;;;5.40;;
28774;SDS011;15926;51.348;6.596;2023-06-10T14:56:04;6.18;;;5.20;;
28774;SDS011;15926;51.348;6.596;2023-06-10T14:58:30;5.53;;;5.13;;